sensor_id;sensor_type;location;lat;lon;timestamp;P1;durP1;ratioP1;P2;durP2;ratioP2
438;SDS011;206;48.782;9.252;2022-12-20T00:02:02;34.20;;;24.77;;
438;SDS011;206;48.782;9.252;2022-12-20T00:04:27;35.63;;;23.03;;
438;SDS011;206;48.782;9.252;2022-12-20T00:06:53;34.40;;;23.07;;
438;SDS011;206;48.782;9.252;2022-12-20T00:09:18;29.40;;;20.83;;
438;SDS011;206;48.782;9.252;2022-12-20T00:11:44;29.70;;;22.17;;
438;SDS011;206;48.782;9.252;2022-12-20T00:14:10;33.33;;;23.30;;
438;SDS011;206;48.782;9.252;2022-12-20T00:16:35;31.10;;;23.33;;
438;SDS011;206;48.782;9.252;2022-12-20T00:19:02;37.37;;;25.60;;
438;SDS011;206;48.782;9.252;2022-12-20T00:21:29;28.97;;;22.07;;
438;SDS011;206;48.782;9.252;2022-12-20T00:23:56;40.50;;;23.30;;
438;SDS011;206;48.782;9.252;2022-12-20T00:26:25;29.87;;;22.77;;
438;SDS011;206;48.782;9.252;2022-12-20T00:28:52;33.50;;;23.47;;
438;SDS011;206;48.782;9.252;2022-12-20T00:31:19;32.63;;;24.20;;
438;SDS011;206;48.782;9.252;2022-12-20T00:33:47;29.97;;;22.20;;
438;SDS011;206;48.782;9.252;2022-12-20T00:36:14;31.33;;;22.83;;
438;SDS011;206;48.782;9.252;2022-12-20T00:38:43;30.57;;;20.57;;
438;SDS011;206;48.782;9.252;2022-12-20T00:41:10;29.43;;;22.40;;
438;SDS011;206;48.782;9.252;2022-12-20T00:43:38;31.40;;;20.43;;
438;SDS011;206;48.782;9.252;2022-12-20T00:46:05;32.43;;;21.73;;
438;SDS011;206;48.782;9.252;2022-12-20T00:48:32;30.70;;;21.47;;
438;SDS011;206;48.782;9.252;2022-12-20T00:50:59;33.90;;;22.67;;
438;SDS011;206;48.782;9.252;2022-12-20T00:53:26;29.57;;;21.13;;
438;SDS011;206;48.782;9.252;2022-12-20T00:55:52;31.57;;;22.30;;
438;SDS011;206;48.782;9.252;2022-12-20T00:58:18;29.33;;;22.00;;
438;SDS011;206;48.782;9.252;2022-12-20T01:00:43;32.00;;;21.93;;
438;SDS011;206;48.782;9.252;2022-12-20T01:03:09;37.07;;;23.37;;
438;SDS011;206;48.782;9.252;2022-12-20T01:05:34;30.60;;;21.77;;
438;SDS011;206;48.782;9.252;2022-12-20T01:08:00;33.60;;;22.13;;
438;SDS011;206;48.782;9.252;2022-12-20T01:10:26;28.03;;;21.37;;
438;SDS011;206;48.782;9.252;2022-12-20T01:12:52;27.17;;;20.10;;
438;SDS011;206;48.782;9.252;2022-12-20T01:15:18;26.90;;;20.30;;
438;SDS011;206;48.782;9.252;2022-12-20T01:17:43;28.83;;;21.13;;
438;SDS011;206;48.782;9.252;2022-12-20T01:20:09;32.40;;;21.63;;
438;SDS011;206;48.782;9.252;2022-12-20T01:22:35;31.40;;;21.43;;
438;SDS011;206;48.782;9.252;2022-12-20T01:25:01;30.10;;;22.53;;
438;SDS011;206;48.782;9.252;2022-12-20T01:27:26;31.10;;;20.70;;
438;SDS011;206;48.782;9.252;2022-12-20T01:29:52;33.70;;;23.80;;
438;SDS011;206;48.782;9.252;2022-12-20T01:32:18;29.30;;;23.03;;
438;SDS011;206;48.782;9.252;2022-12-20T01:34:44;33.50;;;22.93;;
438;SDS011;206;48.782;9.252;2022-12-20T01:37:10;26.90;;;21.33;;
438;SDS011;206;48.782;9.252;2022-12-20T01:39:36;25.33;;;19.20;;
438;SDS011;206;48.782;9.252;2022-12-20T01:42:02;34.03;;;21.83;;
438;SDS011;206;48.782;9.252;2022-12-20T01:46:54;34.20;;;22.37;;
438;SDS011;206;48.782;9.252;2022-12-20T01:51:57;27.77;;;20.73;;
438;SDS011;206;48.782;9.252;2022-12-20T01:54:40;24.00;;;19.23;;
438;SDS011;206;48.782;9.252;2022-12-20T01:57:14;25.53;;;19.60;;
438;SDS011;206;48.782;9.252;2022-12-20T01:59:45;29.73;;;20.43;;
438;SDS011;206;48.782;9.252;2022-12-20T02:02:12;32.07;;;21.60;;
438;SDS011;206;48.782;9.252;2022-12-20T02:04:38;30.03;;;19.10;;
438;SDS011;206;48.782;9.252;2022-12-20T02:07:04;36.87;;;23.20;;
438;SDS011;206;48.782;9.252;2022-12-20T02:09:31;23.10;;;20.13;;
438;SDS011;206;48.782;9.252;2022-12-20T02:14:43;30.77;;;21.47;;
438;SDS011;206;48.782;9.252;2022-12-20T02:17:40;29.13;;;21.97;;
438;SDS011;206;48.782;9.252;2022-12-20T02:26:02;24.40;;;19.50;;
438;SDS011;206;48.782;9.252;2022-12-20T02:31:39;27.67;;;20.23;;
438;SDS011;206;48.782;9.252;2022-12-20T02:34:08;25.07;;;19.50;;
438;SDS011;206;48.782;9.252;2022-12-20T02:36:35;29.47;;;19.83;;
438;SDS011;206;48.782;9.252;2022-12-20T02:39:00;24.77;;;18.97;;
438;SDS011;206;48.782;9.252;2022-12-20T02:41:29;25.77;;;18.23;;
438;SDS011;206;48.782;9.252;2022-12-20T02:44:06;31.83;;;21.10;;
438;SDS011;206;48.782;9.252;2022-12-20T02:46:54;30.03;;;17.87;;
438;SDS011;206;48.782;9.252;2022-12-20T02:49:26;24.47;;;18.63;;
438;SDS011;206;48.782;9.252;2022-12-20T02:51:55;24.40;;;18.43;;
438;SDS011;206;48.782;9.252;2022-12-20T02:54:23;26.33;;;19.53;;
438;SDS011;206;48.782;9.252;2022-12-20T02:56:56;25.20;;;19.33;;
438;SDS011;206;48.782;9.252;2022-12-20T02:59:29;25.07;;;18.13;;
438;SDS011;206;48.782;9.252;2022-12-20T03:02:01;24.20;;;18.10;;
438;SDS011;206;48.782;9.252;2022-12-20T03:04:28;30.37;;;19.83;;
438;SDS011;206;48.782;9.252;2022-12-20T03:09:26;26.27;;;19.17;;
438;SDS011;206;48.782;9.252;2022-12-20T03:11:52;26.83;;;18.37;;
438;SDS011;206;48.782;9.252;2022-12-20T03:14:18;24.23;;;17.23;;
438;SDS011;206;48.782;9.252;2022-12-20T03:16:44;27.67;;;17.03;;
438;SDS011;206;48.782;9.252;2022-12-20T03:19:09;23.90;;;17.40;;
438;SDS011;206;48.782;9.252;2022-12-20T03:21:35;22.67;;;17.60;;
438;SDS011;206;48.782;9.252;2022-12-20T03:24:00;27.90;;;15.83;;
438;SDS011;206;48.782;9.252;2022-12-20T03:26:26;24.50;;;17.50;;
438;SDS011;206;48.782;9.252;2022-12-20T03:28:51;27.30;;;19.80;;
438;SDS011;206;48.782;9.252;2022-12-20T03:31:17;26.30;;;19.27;;
438;SDS011;206;48.782;9.252;2022-12-20T03:33:43;25.90;;;18.20;;
438;SDS011;206;48.782;9.252;2022-12-20T03:36:09;28.03;;;18.47;;
438;SDS011;206;48.782;9.252;2022-12-20T03:38:34;27.40;;;18.50;;
438;SDS011;206;48.782;9.252;2022-12-20T03:41:00;27.07;;;19.60;;
438;SDS011;206;48.782;9.252;2022-12-20T03:43:25;26.57;;;19.83;;
438;SDS011;206;48.782;9.252;2022-12-20T03:45:51;22.80;;;17.80;;
438;SDS011;206;48.782;9.252;2022-12-20T03:48:16;23.27;;;17.27;;
438;SDS011;206;48.782;9.252;2022-12-20T03:50:42;24.30;;;17.30;;
438;SDS011;206;48.782;9.252;2022-12-20T03:53:08;23.23;;;17.20;;
438;SDS011;206;48.782;9.252;2022-12-20T03:55:33;28.67;;;18.33;;
438;SDS011;206;48.782;9.252;2022-12-20T03:57:59;26.13;;;18.40;;
438;SDS011;206;48.782;9.252;2022-12-20T04:00:24;25.50;;;18.10;;
438;SDS011;206;48.782;9.252;2022-12-20T04:02:50;22.57;;;17.30;;
438;SDS011;206;48.782;9.252;2022-12-20T04:05:16;25.40;;;17.40;;
438;SDS011;206;48.782;9.252;2022-12-20T04:07:42;33.47;;;19.47;;
438;SDS011;206;48.782;9.252;2022-12-20T04:10:09;23.73;;;18.10;;
438;SDS011;206;48.782;9.252;2022-12-20T04:12:35;21.17;;;16.97;;
438;SDS011;206;48.782;9.252;2022-12-20T04:15:01;24.60;;;17.57;;
438;SDS011;206;48.782;9.252;2022-12-20T04:17:27;26.63;;;17.97;;
438;SDS011;206;48.782;9.252;2022-12-20T04:19:53;26.37;;;19.20;;
438;SDS011;206;48.782;9.252;2022-12-20T04:22:18;22.00;;;17.27;;
438;SDS011;206;48.782;9.252;2022-12-20T04:24:44;24.90;;;17.60;;
438;SDS011;206;48.782;9.252;2022-12-20T04:27:09;24.03;;;17.73;;
438;SDS011;206;48.782;9.252;2022-12-20T04:29:35;25.80;;;19.40;;
438;SDS011;206;48.782;9.252;2022-12-20T04:32:01;25.10;;;18.20;;
438;SDS011;206;48.782;9.252;2022-12-20T04:34:26;21.53;;;17.10;;
438;SDS011;206;48.782;9.252;2022-12-20T04:36:52;29.27;;;19.57;;
438;SDS011;206;48.782;9.252;2022-12-20T04:39:17;22.60;;;17.20;;
438;SDS011;206;48.782;9.252;2022-12-20T04:41:43;24.10;;;16.77;;
438;SDS011;206;48.782;9.252;2022-12-20T04:44:09;29.30;;;18.27;;
438;SDS011;206;48.782;9.252;2022-12-20T04:46:34;25.07;;;18.93;;
438;SDS011;206;48.782;9.252;2022-12-20T04:49:00;31.03;;;20.07;;
438;SDS011;206;48.782;9.252;2022-12-20T04:51:26;23.10;;;16.00;;
438;SDS011;206;48.782;9.252;2022-12-20T04:53:52;26.17;;;18.50;;
438;SDS011;206;48.782;9.252;2022-12-20T04:56:19;24.07;;;19.57;;
438;SDS011;206;48.782;9.252;2022-12-20T04:58:50;26.83;;;17.83;;
438;SDS011;206;48.782;9.252;2022-12-20T05:01:17;25.40;;;17.30;;
438;SDS011;206;48.782;9.252;2022-12-20T05:03:43;22.60;;;17.27;;
438;SDS011;206;48.782;9.252;2022-12-20T05:06:09;23.63;;;17.23;;
438;SDS011;206;48.782;9.252;2022-12-20T05:08:36;22.53;;;16.63;;
438;SDS011;206;48.782;9.252;2022-12-20T05:11:02;30.23;;;20.13;;
438;SDS011;206;48.782;9.252;2022-12-20T05:13:28;22.90;;;16.03;;
438;SDS011;206;48.782;9.252;2022-12-20T05:15:54;23.83;;;18.17;;
438;SDS011;206;48.782;9.252;2022-12-20T05:18:21;23.13;;;17.00;;
438;SDS011;206;48.782;9.252;2022-12-20T05:20:47;26.70;;;18.73;;
438;SDS011;206;48.782;9.252;2022-12-20T05:23:13;23.53;;;16.57;;
438;SDS011;206;48.782;9.252;2022-12-20T05:25:57;19.60;;;14.90;;
438;SDS011;206;48.782;9.252;2022-12-20T05:28:41;18.47;;;14.47;;
438;SDS011;206;48.782;9.252;2022-12-20T05:31:07;21.03;;;15.10;;
438;SDS011;206;48.782;9.252;2022-12-20T05:33:32;24.37;;;15.80;;
438;SDS011;206;48.782;9.252;2022-12-20T05:35:58;17.03;;;15.53;;
438;SDS011;206;48.782;9.252;2022-12-20T05:38:23;22.20;;;16.70;;
438;SDS011;206;48.782;9.252;2022-12-20T05:40:49;25.43;;;17.70;;
438;SDS011;206;48.782;9.252;2022-12-20T05:43:15;24.53;;;17.73;;
438;SDS011;206;48.782;9.252;2022-12-20T05:45:46;23.97;;;18.27;;
438;SDS011;206;48.782;9.252;2022-12-20T05:48:12;25.80;;;17.30;;
438;SDS011;206;48.782;9.252;2022-12-20T05:50:39;24.23;;;16.63;;
438;SDS011;206;48.782;9.252;2022-12-20T05:53:05;24.07;;;15.47;;
438;SDS011;206;48.782;9.252;2022-12-20T05:55:30;21.40;;;15.80;;
438;SDS011;206;48.782;9.252;2022-12-20T05:57:56;23.27;;;17.70;;
438;SDS011;206;48.782;9.252;2022-12-20T06:00:22;25.03;;;16.43;;
438;SDS011;206;48.782;9.252;2022-12-20T06:02:48;23.00;;;15.90;;
438;SDS011;206;48.782;9.252;2022-12-20T06:05:13;21.10;;;17.00;;
438;SDS011;206;48.782;9.252;2022-12-20T06:07:39;24.40;;;17.57;;
438;SDS011;206;48.782;9.252;2022-12-20T06:10:05;20.17;;;16.53;;
438;SDS011;206;48.782;9.252;2022-12-20T06:12:31;20.03;;;15.93;;
438;SDS011;206;48.782;9.252;2022-12-20T06:14:58;24.43;;;14.93;;
438;SDS011;206;48.782;9.252;2022-12-20T06:17:24;26.40;;;17.47;;
438;SDS011;206;48.782;9.252;2022-12-20T06:19:49;21.57;;;14.63;;
438;SDS011;206;48.782;9.252;2022-12-20T06:22:15;21.13;;;15.47;;
438;SDS011;206;48.782;9.252;2022-12-20T06:24:41;25.17;;;16.73;;
438;SDS011;206;48.782;9.252;2022-12-20T06:27:06;23.10;;;16.87;;
438;SDS011;206;48.782;9.252;2022-12-20T06:29:32;27.60;;;16.83;;
438;SDS011;206;48.782;9.252;2022-12-20T06:31:58;26.53;;;18.23;;
438;SDS011;206;48.782;9.252;2022-12-20T06:34:23;22.20;;;17.50;;
438;SDS011;206;48.782;9.252;2022-12-20T06:36:49;22.60;;;17.83;;
438;SDS011;206;48.782;9.252;2022-12-20T06:39:15;26.27;;;18.10;;
438;SDS011;206;48.782;9.252;2022-12-20T06:41:40;22.73;;;15.97;;
438;SDS011;206;48.782;9.252;2022-12-20T06:44:06;24.70;;;16.97;;
438;SDS011;206;48.782;9.252;2022-12-20T06:46:32;28.13;;;19.13;;
438;SDS011;206;48.782;9.252;2022-12-20T06:48:57;22.63;;;16.90;;
438;SDS011;206;48.782;9.252;2022-12-20T06:51:23;21.40;;;15.90;;
438;SDS011;206;48.782;9.252;2022-12-20T06:53:49;28.30;;;18.67;;
438;SDS011;206;48.782;9.252;2022-12-20T06:56:15;25.77;;;17.43;;
438;SDS011;206;48.782;9.252;2022-12-20T06:58:40;21.30;;;16.17;;
438;SDS011;206;48.782;9.252;2022-12-20T07:01:06;25.30;;;16.53;;
438;SDS011;206;48.782;9.252;2022-12-20T07:03:31;20.20;;;16.10;;
438;SDS011;206;48.782;9.252;2022-12-20T07:05:57;21.20;;;16.17;;
438;SDS011;206;48.782;9.252;2022-12-20T07:08:23;24.37;;;17.37;;
438;SDS011;206;48.782;9.252;2022-12-20T07:10:49;25.40;;;17.30;;
438;SDS011;206;48.782;9.252;2022-12-20T07:13:16;25.10;;;19.33;;
438;SDS011;206;48.782;9.252;2022-12-20T07:15:42;26.93;;;17.90;;
438;SDS011;206;48.782;9.252;2022-12-20T07:18:08;22.47;;;17.87;;
438;SDS011;206;48.782;9.252;2022-12-20T07:20:34;23.47;;;17.80;;
438;SDS011;206;48.782;9.252;2022-12-20T07:23:00;24.40;;;17.27;;
438;SDS011;206;48.782;9.252;2022-12-20T07:25:26;30.83;;;17.97;;
438;SDS011;206;48.782;9.252;2022-12-20T07:27:52;20.63;;;16.40;;
438;SDS011;206;48.782;9.252;2022-12-20T07:30:17;28.63;;;19.43;;
438;SDS011;206;48.782;9.252;2022-12-20T07:32:44;27.17;;;20.03;;
438;SDS011;206;48.782;9.252;2022-12-20T07:35:10;45.53;;;23.30;;
438;SDS011;206;48.782;9.252;2022-12-20T07:37:36;28.53;;;19.17;;
438;SDS011;206;48.782;9.252;2022-12-20T07:40:02;27.97;;;20.30;;
438;SDS011;206;48.782;9.252;2022-12-20T07:42:29;26.00;;;19.13;;
438;SDS011;206;48.782;9.252;2022-12-20T07:44:54;21.80;;;18.20;;
438;SDS011;206;48.782;9.252;2022-12-20T07:47:20;26.37;;;20.00;;
438;SDS011;206;48.782;9.252;2022-12-20T07:49:46;26.50;;;20.23;;
438;SDS011;206;48.782;9.252;2022-12-20T07:52:13;29.33;;;20.30;;
438;SDS011;206;48.782;9.252;2022-12-20T07:54:45;36.13;;;19.97;;
438;SDS011;206;48.782;9.252;2022-12-20T07:57:15;31.83;;;19.93;;
438;SDS011;206;48.782;9.252;2022-12-20T07:59:52;32.10;;;19.20;;
438;SDS011;206;48.782;9.252;2022-12-20T08:02:22;24.50;;;16.73;;
438;SDS011;206;48.782;9.252;2022-12-20T08:04:55;28.37;;;19.47;;
438;SDS011;206;48.782;9.252;2022-12-20T08:07:21;28.97;;;19.73;;
438;SDS011;206;48.782;9.252;2022-12-20T08:09:47;26.10;;;17.70;;
438;SDS011;206;48.782;9.252;2022-12-20T08:12:14;27.77;;;19.93;;
438;SDS011;206;48.782;9.252;2022-12-20T08:14:42;28.80;;;19.47;;
438;SDS011;206;48.782;9.252;2022-12-20T08:17:08;30.67;;;18.00;;
438;SDS011;206;48.782;9.252;2022-12-20T08:19:35;26.43;;;17.60;;
438;SDS011;206;48.782;9.252;2022-12-20T08:22:00;26.63;;;18.37;;
438;SDS011;206;48.782;9.252;2022-12-20T08:24:26;24.93;;;17.17;;
438;SDS011;206;48.782;9.252;2022-12-20T08:26:52;18.30;;;15.53;;
438;SDS011;206;48.782;9.252;2022-12-20T08:29:17;24.23;;;17.03;;
438;SDS011;206;48.782;9.252;2022-12-20T08:31:43;25.83;;;17.80;;
438;SDS011;206;48.782;9.252;2022-12-20T08:34:09;21.90;;;14.87;;
438;SDS011;206;48.782;9.252;2022-12-20T08:36:35;22.07;;;16.90;;
438;SDS011;206;48.782;9.252;2022-12-20T08:39:01;25.73;;;17.80;;
438;SDS011;206;48.782;9.252;2022-12-20T08:41:28;24.80;;;16.03;;
438;SDS011;206;48.782;9.252;2022-12-20T08:43:53;21.93;;;15.13;;
438;SDS011;206;48.782;9.252;2022-12-20T08:46:19;25.23;;;16.83;;
438;SDS011;206;48.782;9.252;2022-12-20T08:48:44;42.77;;;18.23;;
438;SDS011;206;48.782;9.252;2022-12-20T08:51:10;31.77;;;18.00;;
438;SDS011;206;48.782;9.252;2022-12-20T08:53:36;20.67;;;16.33;;
438;SDS011;206;48.782;9.252;2022-12-20T08:56:07;22.87;;;15.47;;
438;SDS011;206;48.782;9.252;2022-12-20T08:58:36;17.20;;;14.07;;
438;SDS011;206;48.782;9.252;2022-12-20T09:01:03;18.43;;;14.67;;
438;SDS011;206;48.782;9.252;2022-12-20T09:03:30;20.20;;;14.77;;
438;SDS011;206;48.782;9.252;2022-12-20T09:05:57;66.97;;;21.20;;
438;SDS011;206;48.782;9.252;2022-12-20T09:08:24;23.00;;;14.87;;
438;SDS011;206;48.782;9.252;2022-12-20T09:10:50;21.53;;;13.93;;
438;SDS011;206;48.782;9.252;2022-12-20T09:13:15;25.03;;;16.93;;
438;SDS011;206;48.782;9.252;2022-12-20T09:15:41;21.43;;;15.40;;
438;SDS011;206;48.782;9.252;2022-12-20T09:18:09;20.43;;;14.50;;
438;SDS011;206;48.782;9.252;2022-12-20T09:20:34;23.00;;;17.00;;
438;SDS011;206;48.782;9.252;2022-12-20T09:23:00;24.07;;;14.60;;
438;SDS011;206;48.782;9.252;2022-12-20T09:25:26;20.20;;;15.13;;
438;SDS011;206;48.782;9.252;2022-12-20T09:27:53;22.80;;;14.90;;
438;SDS011;206;48.782;9.252;2022-12-20T09:30:22;16.80;;;13.23;;
438;SDS011;206;48.782;9.252;2022-12-20T09:32:48;19.70;;;14.27;;
438;SDS011;206;48.782;9.252;2022-12-20T09:35:13;18.77;;;13.73;;
438;SDS011;206;48.782;9.252;2022-12-20T09:37:39;14.80;;;12.30;;
438;SDS011;206;48.782;9.252;2022-12-20T09:40:06;20.70;;;13.60;;
438;SDS011;206;48.782;9.252;2022-12-20T09:42:35;22.67;;;12.70;;
438;SDS011;206;48.782;9.252;2022-12-20T09:45:02;17.67;;;13.87;;
438;SDS011;206;48.782;9.252;2022-12-20T09:47:32;15.60;;;12.60;;
438;SDS011;206;48.782;9.252;2022-12-20T09:49:59;18.00;;;13.27;;
438;SDS011;206;48.782;9.252;2022-12-20T09:52:36;26.60;;;14.30;;
438;SDS011;206;48.782;9.252;2022-12-20T09:57:43;18.60;;;14.37;;
438;SDS011;206;48.782;9.252;2022-12-20T10:00:13;22.90;;;14.33;;
438;SDS011;206;48.782;9.252;2022-12-20T10:02:40;22.67;;;14.77;;
438;SDS011;206;48.782;9.252;2022-12-20T10:05:24;17.00;;;14.00;;
438;SDS011;206;48.782;9.252;2022-12-20T10:16:57;16.53;;;14.97;;
438;SDS011;206;48.782;9.252;2022-12-20T10:27:41;22.50;;;14.63;;
438;SDS011;206;48.782;9.252;2022-12-20T10:30:14;20.03;;;14.43;;
438;SDS011;206;48.782;9.252;2022-12-20T10:32:46;15.67;;;13.23;;
438;SDS011;206;48.782;9.252;2022-12-20T10:37:44;16.03;;;14.20;;
438;SDS011;206;48.782;9.252;2022-12-20T10:40:33;21.63;;;17.00;;
438;SDS011;206;48.782;9.252;2022-12-20T10:43:03;15.93;;;14.37;;
438;SDS011;206;48.782;9.252;2022-12-20T10:48:05;18.33;;;14.37;;
438;SDS011;206;48.782;9.252;2022-12-20T10:50:54;22.60;;;15.80;;
438;SDS011;206;48.782;9.252;2022-12-20T10:53:22;18.23;;;15.30;;
438;SDS011;206;48.782;9.252;2022-12-20T10:55:49;18.80;;;14.63;;
438;SDS011;206;48.782;9.252;2022-12-20T10:58:20;15.37;;;13.33;;
438;SDS011;206;48.782;9.252;2022-12-20T11:00:46;22.43;;;14.67;;
438;SDS011;206;48.782;9.252;2022-12-20T11:06:02;16.73;;;15.00;;
438;SDS011;206;48.782;9.252;2022-12-20T11:08:28;19.67;;;14.30;;
438;SDS011;206;48.782;9.252;2022-12-20T11:11:09;17.13;;;13.90;;
438;SDS011;206;48.782;9.252;2022-12-20T11:13:38;19.93;;;16.07;;
438;SDS011;206;48.782;9.252;2022-12-20T11:16:05;22.27;;;15.07;;
438;SDS011;206;48.782;9.252;2022-12-20T11:21:18;21.13;;;15.33;;
438;SDS011;206;48.782;9.252;2022-12-20T11:32:07;23.00;;;19.80;;
438;SDS011;206;48.782;9.252;2022-12-20T11:40:28;24.80;;;16.20;;
438;SDS011;206;48.782;9.252;2022-12-20T11:51:23;20.33;;;15.90;;
438;SDS011;206;48.782;9.252;2022-12-20T11:56:50;19.20;;;14.80;;
438;SDS011;206;48.782;9.252;2022-12-20T12:02:09;18.87;;;15.20;;
438;SDS011;206;48.782;9.252;2022-12-20T12:04:49;19.13;;;15.20;;
438;SDS011;206;48.782;9.252;2022-12-20T12:07:22;42.47;;;20.53;;
438;SDS011;206;48.782;9.252;2022-12-20T12:09:57;21.23;;;15.47;;
438;SDS011;206;48.782;9.252;2022-12-20T12:12:41;23.70;;;15.70;;
438;SDS011;206;48.782;9.252;2022-12-20T12:17:40;28.73;;;17.53;;
438;SDS011;206;48.782;9.252;2022-12-20T12:23:06;24.80;;;17.00;;
438;SDS011;206;48.782;9.252;2022-12-20T12:25:48;22.30;;;17.20;;
438;SDS011;206;48.782;9.252;2022-12-20T12:28:14;24.47;;;18.37;;
438;SDS011;206;48.782;9.252;2022-12-20T12:30:44;19.77;;;14.47;;
438;SDS011;206;48.782;9.252;2022-12-20T12:33:18;21.40;;;15.13;;
438;SDS011;206;48.782;9.252;2022-12-20T12:38:31;20.67;;;17.87;;
438;SDS011;206;48.782;9.252;2022-12-20T12:43:48;45.53;;;19.03;;
438;SDS011;206;48.782;9.252;2022-12-20T12:46:21;19.10;;;16.27;;
438;SDS011;206;48.782;9.252;2022-12-20T12:48:59;23.67;;;16.80;;
438;SDS011;206;48.782;9.252;2022-12-20T12:51:36;14.57;;;13.87;;
438;SDS011;206;48.782;9.252;2022-12-20T12:56:48;17.10;;;15.30;;
438;SDS011;206;48.782;9.252;2022-12-20T13:09:56;24.27;;;18.83;;
438;SDS011;206;48.782;9.252;2022-12-20T13:15:01;21.47;;;16.40;;
438;SDS011;206;48.782;9.252;2022-12-20T13:17:56;20.30;;;16.80;;
438;SDS011;206;48.782;9.252;2022-12-20T13:20:25;16.73;;;14.80;;
438;SDS011;206;48.782;9.252;2022-12-20T13:25:43;18.67;;;14.93;;
438;SDS011;206;48.782;9.252;2022-12-20T13:41:14;16.77;;;13.67;;
438;SDS011;206;48.782;9.252;2022-12-20T13:46:41;16.20;;;12.97;;
438;SDS011;206;48.782;9.252;2022-12-20T13:49:23;21.93;;;14.07;;
438;SDS011;206;48.782;9.252;2022-12-20T13:54:48;11.87;;;11.20;;
438;SDS011;206;48.782;9.252;2022-12-20T13:57:18;16.97;;;12.83;;
438;SDS011;206;48.782;9.252;2022-12-20T13:59:51;17.07;;;13.30;;
438;SDS011;206;48.782;9.252;2022-12-20T14:02:21;21.20;;;12.70;;
438;SDS011;206;48.782;9.252;2022-12-20T14:05:06;16.50;;;12.40;;
438;SDS011;206;48.782;9.252;2022-12-20T14:07:40;18.43;;;13.17;;
438;SDS011;206;48.782;9.252;2022-12-20T14:10:18;18.57;;;13.77;;
438;SDS011;206;48.782;9.252;2022-12-20T14:12:46;17.37;;;12.97;;
438;SDS011;206;48.782;9.252;2022-12-20T14:15:21;18.53;;;15.03;;
438;SDS011;206;48.782;9.252;2022-12-20T14:17:48;23.20;;;14.30;;
438;SDS011;206;48.782;9.252;2022-12-20T14:20:15;17.20;;;14.57;;
438;SDS011;206;48.782;9.252;2022-12-20T14:23:03;20.67;;;15.73;;
438;SDS011;206;48.782;9.252;2022-12-20T14:30:57;22.63;;;14.53;;
438;SDS011;206;48.782;9.252;2022-12-20T14:38:35;25.20;;;16.23;;
438;SDS011;206;48.782;9.252;2022-12-20T14:41:02;20.20;;;15.33;;
438;SDS011;206;48.782;9.252;2022-12-20T14:43:32;21.97;;;15.50;;
438;SDS011;206;48.782;9.252;2022-12-20T14:46:06;21.03;;;16.57;;
438;SDS011;206;48.782;9.252;2022-12-20T14:48:43;35.43;;;18.77;;
438;SDS011;206;48.782;9.252;2022-12-20T14:51:09;41.57;;;24.50;;
438;SDS011;206;48.782;9.252;2022-12-20T14:53:36;30.10;;;19.07;;
438;SDS011;206;48.782;9.252;2022-12-20T14:56:03;30.87;;;22.27;;
438;SDS011;206;48.782;9.252;2022-12-20T14:58:30;32.27;;;22.77;;
438;SDS011;206;48.782;9.252;2022-12-20T15:01:17;45.90;;;29.17;;
438;SDS011;206;48.782;9.252;2022-12-20T15:03:48;32.50;;;23.73;;
438;SDS011;206;48.782;9.252;2022-12-20T15:09:06;44.23;;;27.10;;
438;SDS011;206;48.782;9.252;2022-12-20T15:11:32;22.47;;;15.83;;
438;SDS011;206;48.782;9.252;2022-12-20T15:13:59;17.13;;;15.13;;
438;SDS011;206;48.782;9.252;2022-12-20T15:16:27;14.37;;;12.73;;
438;SDS011;206;48.782;9.252;2022-12-20T15:18:54;15.33;;;12.67;;
438;SDS011;206;48.782;9.252;2022-12-20T15:23:53;16.80;;;14.07;;
438;SDS011;206;48.782;9.252;2022-12-20T15:26:21;27.30;;;16.67;;
438;SDS011;206;48.782;9.252;2022-12-20T15:28:51;22.77;;;15.30;;
438;SDS011;206;48.782;9.252;2022-12-20T15:31:18;19.40;;;15.63;;
438;SDS011;206;48.782;9.252;2022-12-20T15:33:44;19.07;;;15.27;;
438;SDS011;206;48.782;9.252;2022-12-20T15:36:18;20.77;;;14.93;;
438;SDS011;206;48.782;9.252;2022-12-20T15:38:45;24.60;;;14.20;;
438;SDS011;206;48.782;9.252;2022-12-20T15:41:17;18.07;;;14.50;;
438;SDS011;206;48.782;9.252;2022-12-20T15:43:52;19.77;;;14.20;;
438;SDS011;206;48.782;9.252;2022-12-20T15:46:23;20.17;;;15.37;;
438;SDS011;206;48.782;9.252;2022-12-20T15:48:49;20.77;;;14.33;;
438;SDS011;206;48.782;9.252;2022-12-20T15:54:02;26.13;;;16.00;;
438;SDS011;206;48.782;9.252;2022-12-20T15:56:29;22.43;;;16.50;;
438;SDS011;206;48.782;9.252;2022-12-20T15:58:54;22.00;;;15.40;;
438;SDS011;206;48.782;9.252;2022-12-20T16:03:54;22.33;;;14.67;;
438;SDS011;206;48.782;9.252;2022-12-20T16:06:19;16.50;;;15.17;;
438;SDS011;206;48.782;9.252;2022-12-20T16:08:45;23.57;;;16.17;;
438;SDS011;206;48.782;9.252;2022-12-20T16:11:21;21.40;;;15.80;;
438;SDS011;206;48.782;9.252;2022-12-20T16:13:48;18.53;;;14.30;;
438;SDS011;206;48.782;9.252;2022-12-20T16:16:19;16.30;;;15.53;;
438;SDS011;206;48.782;9.252;2022-12-20T16:18:45;23.80;;;16.50;;
438;SDS011;206;48.782;9.252;2022-12-20T16:21:18;17.80;;;15.47;;
438;SDS011;206;48.782;9.252;2022-12-20T16:23:46;27.03;;;16.50;;
438;SDS011;206;48.782;9.252;2022-12-20T16:26:12;24.07;;;17.00;;
438;SDS011;206;48.782;9.252;2022-12-20T16:28:39;28.00;;;19.20;;
438;SDS011;206;48.782;9.252;2022-12-20T16:31:09;23.30;;;19.43;;
438;SDS011;206;48.782;9.252;2022-12-20T16:33:55;22.43;;;21.20;;
438;SDS011;206;48.782;9.252;2022-12-20T16:36:22;24.73;;;21.70;;
438;SDS011;206;48.782;9.252;2022-12-20T16:38:48;22.40;;;19.30;;
438;SDS011;206;48.782;9.252;2022-12-20T16:41:16;24.30;;;15.90;;
438;SDS011;206;48.782;9.252;2022-12-20T16:43:43;19.60;;;16.97;;
438;SDS011;206;48.782;9.252;2022-12-20T16:46:10;19.30;;;16.63;;
438;SDS011;206;48.782;9.252;2022-12-20T16:48:37;17.67;;;15.30;;
438;SDS011;206;48.782;9.252;2022-12-20T16:51:05;20.38;;;14.63;;
438;SDS011;206;48.782;9.252;2022-12-20T16:53:52;14.17;;;12.73;;
438;SDS011;206;48.782;9.252;2022-12-20T16:56:19;18.73;;;13.77;;
438;SDS011;206;48.782;9.252;2022-12-20T16:58:45;20.17;;;13.67;;
438;SDS011;206;48.782;9.252;2022-12-20T17:01:14;21.83;;;15.93;;
438;SDS011;206;48.782;9.252;2022-12-20T17:03:44;16.90;;;15.80;;
438;SDS011;206;48.782;9.252;2022-12-20T17:06:13;18.93;;;16.50;;
438;SDS011;206;48.782;9.252;2022-12-20T17:08:40;19.20;;;15.80;;
438;SDS011;206;48.782;9.252;2022-12-20T17:13:43;28.27;;;21.63;;
438;SDS011;206;48.782;9.252;2022-12-20T17:16:10;29.50;;;23.80;;
438;SDS011;206;48.782;9.252;2022-12-20T17:18:37;30.43;;;23.90;;
438;SDS011;206;48.782;9.252;2022-12-20T17:21:23;28.07;;;21.97;;
438;SDS011;206;48.782;9.252;2022-12-20T17:23:55;19.87;;;17.30;;
438;SDS011;206;48.782;9.252;2022-12-20T17:26:21;23.77;;;17.10;;
438;SDS011;206;48.782;9.252;2022-12-20T17:28:49;27.87;;;19.27;;
438;SDS011;206;48.782;9.252;2022-12-20T17:33:50;19.63;;;17.20;;
438;SDS011;206;48.782;9.252;2022-12-20T17:36:15;20.63;;;15.40;;
438;SDS011;206;48.782;9.252;2022-12-20T17:38:41;32.93;;;19.83;;
438;SDS011;206;48.782;9.252;2022-12-20T17:41:40;24.37;;;16.17;;
438;SDS011;206;48.782;9.252;2022-12-20T17:43:59;26.57;;;18.07;;
438;SDS011;206;48.782;9.252;2022-12-20T17:46:26;27.30;;;19.73;;
438;SDS011;206;48.782;9.252;2022-12-20T17:48:53;23.40;;;17.93;;
438;SDS011;206;48.782;9.252;2022-12-20T17:51:23;28.33;;;19.77;;
438;SDS011;206;48.782;9.252;2022-12-20T17:53:57;23.47;;;18.97;;
438;SDS011;206;48.782;9.252;2022-12-20T17:56:26;24.33;;;17.20;;